createdAt,value
2017-07-18T00:02:04.866Z,"    0"
2017-07-18T00:07:00.648Z,"    0"
2017-07-18T00:11:56.861Z,"    0"
2017-07-18T00:16:52.678Z,"    0"
2017-07-18T00:21:48.418Z,"    0"
2017-07-18T00:26:45.260Z,"    0"
2017-07-18T00:31:41.868Z,"    0"
2017-07-18T00:36:37.454Z,"    0"
2017-07-18T00:41:33.262Z,"    0"
2017-07-18T00:46:29.432Z,"    0"
2017-07-18T00:51:26.380Z,"    0"
2017-07-18T00:56:23.093Z,"    0"
2017-07-18T01:01:19.561Z,"    0"
2017-07-18T01:06:16.217Z,"    0"
2017-07-18T01:11:12.804Z,"    0"
2017-07-18T01:16:08.320Z,"    0"
2017-07-18T01:21:05.332Z,"    0"
2017-07-18T01:26:01.042Z,"    0"
2017-07-18T01:30:57.998Z,"    0"
2017-07-18T01:35:53.405Z,"    0"
2017-07-18T01:40:50.984Z,"    0"
2017-07-18T01:45:46.442Z,"    0"
2017-07-18T01:50:42.302Z,"    0"
2017-07-18T01:55:39.217Z,"    0"
2017-07-18T02:00:36.158Z,"    0"
2017-07-18T02:05:31.588Z,"    0"
2017-07-18T02:10:29.364Z,"    0"
2017-07-18T02:15:25.262Z,"    0"
2017-07-18T02:20:21.036Z,"    0"
2017-07-18T02:25:17.916Z,"    0"
2017-07-18T02:30:13.387Z,"    0"
2017-07-18T02:35:08.908Z,"    0"
2017-07-18T02:40:04.846Z,"    0"
2017-07-18T02:45:01.836Z,"    0"
2017-07-18T02:49:57.194Z,"    4"
2017-07-18T02:54:53.393Z,"    4"
2017-07-18T02:59:49.868Z,"    4"
2017-07-18T03:04:45.507Z,"    8"
2017-07-18T03:09:41.331Z,"   20"
2017-07-18T03:14:37.158Z,"   32"
2017-07-18T03:19:32.997Z,"   52"
2017-07-18T03:24:29.751Z,"   80"
2017-07-18T03:29:25.236Z,"  120"
2017-07-18T03:34:22.141Z,"  164"
2017-07-18T03:39:17.723Z,"  228"
2017-07-18T03:44:14.873Z,"  304"
2017-07-18T03:49:10.515Z,"  384"
2017-07-18T03:54:06.396Z,"  468"
2017-07-18T03:59:03.313Z,"  560"
2017-07-18T04:04:00.196Z,"  724"
2017-07-18T04:08:55.957Z," 1012"
2017-07-18T04:13:51.867Z," 1260"
2017-07-18T04:18:48.953Z," 1364"
2017-07-18T04:23:45.387Z," 1504"
2017-07-18T04:28:41.262Z," 1624"
2017-07-18T04:33:37.382Z," 3184"
2017-07-18T04:38:34.707Z," 5132"
2017-07-18T04:43:30.781Z," 6104"
2017-07-18T04:48:27.575Z," 7008"
2017-07-18T04:53:24.400Z," 7864"
2017-07-18T04:58:21.662Z," 8284"
2017-07-18T05:03:17.757Z," 6624"
2017-07-18T05:08:14.950Z," 9512"
2017-07-18T05:13:10.988Z," 9656"
2017-07-18T05:18:08.070Z," 6472"
2017-07-18T05:23:04.191Z," 8800"
2017-07-18T05:28:01.167Z," 4412"
2017-07-18T05:32:58.295Z," 5916"
2017-07-18T05:37:54.221Z," 4196"
2017-07-18T05:42:50.225Z," 5544"
2017-07-18T05:47:47.240Z," 7352"
2017-07-18T05:52:44.217Z," 6612"
2017-07-18T05:57:42.044Z," 9224"
2017-07-18T06:02:38.558Z," 8356"
2017-07-18T06:07:34.581Z," 8012"
2017-07-18T06:12:32.578Z," 7832"
2017-07-18T06:17:30.342Z," 7832"
2017-07-18T06:22:25.456Z," 7460"
2017-07-18T06:27:21.284Z," 7860"
2017-07-18T06:32:17.225Z," 8712"
2017-07-18T06:37:13.657Z," 9032"
2017-07-18T06:42:12.101Z," 9580"
2017-07-18T06:47:10.719Z," 8772"
2017-07-18T06:52:07.895Z," 7444"
2017-07-18T06:57:06.133Z," 7772"
2017-07-18T07:02:02.813Z," 6376"
2017-07-18T07:06:58.706Z," 5316"
2017-07-18T07:11:56.825Z," 5620"
2017-07-18T07:32:01.366Z," 7632"
2017-07-18T07:36:57.844Z,10068
2017-07-18T07:41:56.456Z,10004
2017-07-18T07:51:55.963Z," 9832"
2017-07-18T07:56:55.280Z,47392
2017-07-18T08:07:04.163Z,53120
2017-07-18T08:12:01.687Z,58016
2017-07-18T08:17:01.928Z,57984
2017-07-18T08:27:04.015Z,19584
2017-07-18T08:31:58.470Z,31872
2017-07-18T08:36:54.062Z,36000
2017-07-18T08:41:51.147Z,33632
2017-07-18T08:46:47.229Z,47392
2017-07-18T08:51:46.938Z,66176
2017-07-18T08:56:46.754Z,71168
2017-07-18T09:01:48.872Z,77376
2017-07-18T09:06:44.948Z,74176
2017-07-18T09:11:43.841Z,62048
2017-07-18T09:16:39.872Z,74176
2017-07-18T09:21:36.696Z,73088
2017-07-18T09:26:36.288Z,56448
2017-07-18T09:31:31.415Z,68864
2017-07-18T09:36:28.193Z,76832
2017-07-18T09:41:25.769Z,96672
2017-07-18T09:46:21.523Z,77536
2017-07-18T09:51:18.435Z,89280
2017-07-18T09:56:14.846Z,86336
2017-07-18T10:01:11.665Z,76736
2017-07-18T10:06:07.656Z,89248
2017-07-18T10:11:04.104Z,88672
2017-07-18T10:16:01.214Z,79424
2017-07-18T10:20:57.224Z,79008
2017-07-18T10:25:53.496Z,80704
2017-07-18T10:30:50.414Z,85888
2017-07-18T10:35:46.292Z,73184
2017-07-18T10:40:43.495Z,58848
2017-07-18T10:45:41.469Z,59744
2017-07-18T10:50:38.787Z,74208
2017-07-18T10:55:35.892Z,77568
2017-07-18T11:00:32.018Z,68352
2017-07-18T11:05:27.547Z,85376
2017-07-18T11:10:23.945Z,52416
2017-07-18T11:15:20.711Z,68288
2017-07-18T11:20:17.596Z,72448
2017-07-18T11:25:14.562Z,77696
2017-07-18T11:30:13.112Z,99360
2017-07-18T11:35:09.369Z,75424
2017-07-18T11:40:06.094Z,91840
2017-07-18T11:45:02.289Z,113312
2017-07-18T11:50:00.011Z,122560
2017-07-18T11:54:57.508Z,106784
2017-07-18T11:59:53.922Z,110496
2017-07-18T12:04:51.270Z,94944
2017-07-18T12:09:47.865Z,87872
2017-07-18T12:14:43.586Z,94336
2017-07-18T12:19:39.812Z,118240
2017-07-18T13:16:35.908Z,113408
2017-07-18T13:21:30.779Z,117984
2017-07-18T13:26:27.812Z,90752
2017-07-18T13:31:23.768Z,68576
2017-07-18T13:36:20.036Z,73280
2017-07-18T13:41:16.944Z,88288
2017-07-18T13:46:13.752Z,96032
2017-07-18T13:51:09.147Z,100320
2017-07-18T13:56:04.803Z,70496
2017-07-18T14:01:01.108Z,55296
2017-07-18T14:05:57.151Z,72992
2017-07-18T14:10:53.340Z,81984
2017-07-18T14:15:49.409Z," 4024"
2017-07-18T14:20:44.015Z," 3268"
2017-07-18T14:25:39.240Z," 3104"
2017-07-18T14:30:34.958Z," 3124"
2017-07-18T14:35:30.705Z," 3044"
2017-07-18T14:40:26.506Z," 2932"
2017-07-18T14:45:22.412Z," 2816"
2017-07-18T14:50:18.292Z," 2748"
2017-07-18T14:55:15.134Z," 2752"
2017-07-18T15:00:10.596Z," 2760"
2017-07-18T15:05:07.585Z," 2640"
2017-07-18T15:10:04.404Z," 2604"
2017-07-18T15:15:00.267Z," 2584"
2017-07-18T15:19:57.411Z," 2536"
2017-07-18T15:24:52.983Z," 2552"
2017-07-18T15:29:49.832Z," 2500"
2017-07-18T15:34:45.667Z," 2508"
2017-07-18T15:39:44.871Z," 2428"
2017-07-18T15:44:40.156Z," 2436"
2017-07-18T15:49:37.064Z," 2352"
2017-07-18T15:54:33.319Z," 2624"
2017-07-18T15:59:29.386Z," 2644"
2017-07-18T16:04:27.388Z," 2620"
2017-07-18T16:09:23.492Z," 2548"
2017-07-18T16:14:20.852Z," 2616"
2017-07-18T16:19:17.515Z," 2724"
2017-07-18T16:24:15.368Z," 2784"
2017-07-18T16:29:10.820Z," 2660"
2017-07-18T16:39:08.396Z," 2408"
2017-07-18T16:44:05.028Z," 2336"
2017-07-18T16:49:01.913Z," 2044"
2017-07-18T16:53:57.584Z," 1912"
2017-07-18T16:58:53.398Z," 1508"
2017-07-18T17:03:54.546Z," 1448"
2017-07-18T17:08:49.678Z," 1604"
2017-07-18T17:13:45.734Z," 1564"
2017-07-18T17:18:42.630Z," 1512"
2017-07-18T17:23:38.355Z," 1420"
2017-07-18T17:28:34.342Z," 1408"
2017-07-18T17:33:30.490Z," 1492"
2017-07-18T17:38:26.564Z," 1668"
2017-07-18T17:43:23.551Z," 1860"
2017-07-18T17:48:20.388Z," 1984"
2017-07-18T17:53:17.260Z," 1940"
2017-07-18T17:58:13.118Z," 1772"
2017-07-18T18:03:08.961Z," 1624"
2017-07-18T18:08:05.143Z," 1496"
2017-07-18T18:13:02.321Z," 1320"
2017-07-18T18:17:58.091Z," 1300"
2017-07-18T18:22:54.555Z," 1292"
2017-07-18T18:27:51.428Z," 1176"
2017-07-18T18:32:46.930Z," 1088"
2017-07-18T18:37:42.815Z," 1028"
2017-07-18T18:42:40.124Z,"  924"
2017-07-18T18:47:37.335Z,"  812"
2017-07-18T18:52:34.193Z,"  716"
2017-07-18T18:57:29.825Z,"  628"
2017-07-18T19:02:26.612Z,"  536"
2017-07-18T19:07:22.011Z,"  432"
2017-07-18T19:12:19.127Z,"  360"
2017-07-18T19:22:17.403Z,"  224"
2017-07-18T19:27:12.875Z,"  180"
2017-07-18T19:32:09.012Z,"  140"
2017-07-18T19:37:04.824Z,"  108"
2017-07-18T19:42:00.702Z,"   72"
2017-07-18T19:46:57.783Z,"   48"
2017-07-18T19:51:54.345Z,"   32"
2017-07-18T19:56:51.901Z,"   16"
2017-07-18T20:01:47.374Z,"    8"
2017-07-18T20:06:43.857Z,"    8"
2017-07-18T20:11:39.796Z,"    4"
2017-07-18T20:16:36.278Z,"    0"
2017-07-18T20:21:32.176Z,"    0"
2017-07-18T20:26:30.132Z,"    0"
2017-07-18T20:31:26.196Z,"    0"
2017-07-18T20:36:21.600Z,"    0"
2017-07-18T20:41:17.614Z,"    0"
2017-07-18T20:46:13.652Z,"    0"
2017-07-18T20:51:09.693Z,"    0"
2017-07-18T20:56:07.347Z,"    0"
2017-07-18T21:01:04.070Z,"    0"
2017-07-18T21:06:00.730Z,"    0"
2017-07-18T21:10:56.727Z,"    0"
2017-07-18T21:15:52.534Z,"    0"
2017-07-18T21:20:49.404Z,"    0"
2017-07-18T21:25:47.279Z,"    0"
2017-07-18T21:30:43.653Z,"    0"
2017-07-18T21:35:39.466Z,"    0"
2017-07-18T21:40:35.783Z,"    0"
2017-07-18T21:45:31.662Z,"    0"
2017-07-18T21:50:27.567Z,"    0"
2017-07-18T21:55:24.985Z,"    0"
2017-07-18T22:00:21.096Z,"    0"
2017-07-18T22:05:18.019Z,"    0"
2017-07-18T22:10:14.879Z,"    0"
2017-07-18T22:15:10.814Z,"    0"
2017-07-18T22:20:06.651Z,"    0"
2017-07-18T22:25:02.614Z,"    0"
2017-07-18T22:30:01.175Z,"    0"
2017-07-18T22:34:57.498Z,"    0"
2017-07-18T22:39:53.205Z,"    0"
2017-07-18T22:44:50.476Z,"    0"
2017-07-18T22:49:48.540Z,"    0"
2017-07-18T22:54:45.008Z,"    0"
2017-07-18T22:59:42.169Z,"    0"
2017-07-18T23:04:37.585Z,"    0"
2017-07-18T23:09:34.682Z,"    0"
2017-07-18T23:14:32.875Z,"    0"
2017-07-18T23:19:28.790Z,"    0"
2017-07-18T23:24:26.253Z,"    0"
2017-07-18T23:29:22.295Z,"    0"
2017-07-18T23:34:18.036Z,"    0"
2017-07-18T23:39:15.401Z,"    0"
2017-07-18T23:44:11.246Z,"    0"
2017-07-18T23:49:07.324Z,"    0"
2017-07-18T23:54:05.059Z,"    0"
2017-07-18T23:59:01.245Z,"    0"
